sensor_id;sensor_type;location;lat;lon;timestamp;temperature;humidity
30290;DHT22;17105;55.652;37.710;2022-11-11T00:00:35;11.80;94.10
30290;DHT22;17105;55.652;37.710;2022-11-11T00:01:28;11.80;94.10
30290;DHT22;17105;55.652;37.710;2022-11-11T00:02:20;11.70;94.10
30290;DHT22;17105;55.652;37.710;2022-11-11T00:03:12;11.70;94.10
30290;DHT22;17105;55.652;37.710;2022-11-11T00:04:05;11.80;94.10
30290;DHT22;17105;55.652;37.710;2022-11-11T00:04:57;11.80;94.10
30290;DHT22;17105;55.652;37.710;2022-11-11T00:05:50;11.80;94.10
30290;DHT22;17105;55.652;37.710;2022-11-11T00:06:42;11.80;94.10
30290;DHT22;17105;55.652;37.710;2022-11-11T00:07:35;11.80;94.10
30290;DHT22;17105;55.652;37.710;2022-11-11T00:08:27;11.80;94.10
30290;DHT22;17105;55.652;37.710;2022-11-11T00:09:20;11.80;94.10
30290;DHT22;17105;55.652;37.710;2022-11-11T00:10:14;11.80;94.10
30290;DHT22;17105;55.652;37.710;2022-11-11T00:11:07;11.90;94.10
30290;DHT22;17105;55.652;37.710;2022-11-11T00:12:01;11.90;94.20
30290;DHT22;17105;55.652;37.710;2022-11-11T00:12:52;11.80;94.10
30290;DHT22;17105;55.652;37.710;2022-11-11T00:13:46;11.90;94.20
30290;DHT22;17105;55.652;37.710;2022-11-11T00:14:37;11.90;94.20
30290;DHT22;17105;55.652;37.710;2022-11-11T00:15:29;11.80;94.20
30290;DHT22;17105;55.652;37.710;2022-11-11T00:16:21;11.80;94.20
30290;DHT22;17105;55.652;37.710;2022-11-11T00:17:14;11.80;94.20
30290;DHT22;17105;55.652;37.710;2022-11-11T00:18:23;11.80;94.20
30290;DHT22;17105;55.652;37.710;2022-11-11T00:19:34;11.80;94.20
30290;DHT22;17105;55.652;37.710;2022-11-11T00:20:43;11.80;94.30
30290;DHT22;17105;55.652;37.710;2022-11-11T00:21:54;11.80;94.30
30290;DHT22;17105;55.652;37.710;2022-11-11T00:23:04;11.80;94.30
30290;DHT22;17105;55.652;37.710;2022-11-11T00:24:20;11.80;94.30
30290;DHT22;17105;55.652;37.710;2022-11-11T00:25:46;11.80;94.40
30290;DHT22;17105;55.652;37.710;2022-11-11T00:26:42;11.80;94.30
30290;DHT22;17105;55.652;37.710;2022-11-11T00:27:37;11.80;94.30
30290;DHT22;17105;55.652;37.710;2022-11-11T00:28:30;11.90;94.40
30290;DHT22;17105;55.652;37.710;2022-11-11T00:29:21;11.80;94.40
30290;DHT22;17105;55.652;37.710;2022-11-11T00:30:15;11.80;94.40
30290;DHT22;17105;55.652;37.710;2022-11-11T00:31:09;11.80;94.40
30290;DHT22;17105;55.652;37.710;2022-11-11T00:32:02;11.80;94.50
30290;DHT22;17105;55.652;37.710;2022-11-11T00:33:13;11.80;94.40
30290;DHT22;17105;55.652;37.710;2022-11-11T00:34:07;11.80;94.40
30290;DHT22;17105;55.652;37.710;2022-11-11T00:34:59;11.80;94.40
30290;DHT22;17105;55.652;37.710;2022-11-11T00:36:09;11.80;94.40
30290;DHT22;17105;55.652;37.710;2022-11-11T00:37:01;11.80;94.50
30290;DHT22;17105;55.652;37.710;2022-11-11T00:37:55;11.70;94.50
30290;DHT22;17105;55.652;37.710;2022-11-11T00:38:56;11.70;94.50
30290;DHT22;17105;55.652;37.710;2022-11-11T00:39:49;11.70;94.60
30290;DHT22;17105;55.652;37.710;2022-11-11T00:40:41;11.70;94.60
30290;DHT22;17105;55.652;37.710;2022-11-11T00:41:34;11.70;94.60
30290;DHT22;17105;55.652;37.710;2022-11-11T00:42:26;11.70;94.60
30290;DHT22;17105;55.652;37.710;2022-11-11T00:43:20;11.70;94.70
30290;DHT22;17105;55.652;37.710;2022-11-11T00:44:13;11.80;94.70
30290;DHT22;17105;55.652;37.710;2022-11-11T00:45:06;11.80;94.70
30290;DHT22;17105;55.652;37.710;2022-11-11T00:45:58;11.80;94.70
30290;DHT22;17105;55.652;37.710;2022-11-11T00:47:05;11.80;94.70
30290;DHT22;17105;55.652;37.710;2022-11-11T00:48:15;11.80;94.80
30290;DHT22;17105;55.652;37.710;2022-11-11T00:49:25;11.80;94.80
30290;DHT22;17105;55.652;37.710;2022-11-11T00:50:38;11.70;94.70
30290;DHT22;17105;55.652;37.710;2022-11-11T00:51:50;11.70;94.90
30290;DHT22;17105;55.652;37.710;2022-11-11T00:52:44;11.70;94.90
30290;DHT22;17105;55.652;37.710;2022-11-11T00:53:37;11.70;95.00
30290;DHT22;17105;55.652;37.710;2022-11-11T00:54:30;11.70;95.10
30290;DHT22;17105;55.652;37.710;2022-11-11T00:55:24;11.70;95.10
30290;DHT22;17105;55.652;37.710;2022-11-11T00:56:16;11.70;95.10
30290;DHT22;17105;55.652;37.710;2022-11-11T00:57:10;11.70;95.10
30290;DHT22;17105;55.652;37.710;2022-11-11T00:58:02;11.70;95.10
30290;DHT22;17105;55.652;37.710;2022-11-11T00:58:56;11.70;95.10
30290;DHT22;17105;55.652;37.710;2022-11-11T00:59:48;11.70;95.10
30290;DHT22;17105;55.652;37.710;2022-11-11T01:00:40;11.70;95.10
30290;DHT22;17105;55.652;37.710;2022-11-11T01:01:33;11.70;95.20
30290;DHT22;17105;55.652;37.710;2022-11-11T01:02:26;11.70;95.20
30290;DHT22;17105;55.652;37.710;2022-11-11T01:03:18;11.70;95.30
30290;DHT22;17105;55.652;37.710;2022-11-11T01:04:11;11.70;95.20
30290;DHT22;17105;55.652;37.710;2022-11-11T01:05:04;11.70;95.30
30290;DHT22;17105;55.652;37.710;2022-11-11T01:05:58;11.70;95.30
30290;DHT22;17105;55.652;37.710;2022-11-11T01:06:50;11.70;95.40
30290;DHT22;17105;55.652;37.710;2022-11-11T01:07:43;11.70;95.30
30290;DHT22;17105;55.652;37.710;2022-11-11T01:08:35;11.70;95.40
30290;DHT22;17105;55.652;37.710;2022-11-11T01:09:28;11.70;95.50
30290;DHT22;17105;55.652;37.710;2022-11-11T01:10:20;11.70;95.50
30290;DHT22;17105;55.652;37.710;2022-11-11T01:11:26;11.70;95.50
30290;DHT22;17105;55.652;37.710;2022-11-11T01:12:19;11.70;95.60
30290;DHT22;17105;55.652;37.710;2022-11-11T01:13:15;11.70;95.60
30290;DHT22;17105;55.652;37.710;2022-11-11T01:14:09;11.70;95.60
30290;DHT22;17105;55.652;37.710;2022-11-11T01:15:01;11.70;95.60
30290;DHT22;17105;55.652;37.710;2022-11-11T01:15:56;11.70;95.60
30290;DHT22;17105;55.652;37.710;2022-11-11T01:16:49;11.70;95.60
30290;DHT22;17105;55.652;37.710;2022-11-11T01:17:41;11.70;95.60
30290;DHT22;17105;55.652;37.710;2022-11-11T01:18:34;11.70;95.60
30290;DHT22;17105;55.652;37.710;2022-11-11T01:19:27;11.70;95.70
30290;DHT22;17105;55.652;37.710;2022-11-11T01:20:19;11.70;95.70
30290;DHT22;17105;55.652;37.710;2022-11-11T01:21:12;11.70;95.70
30290;DHT22;17105;55.652;37.710;2022-11-11T01:22:07;11.60;95.70
30290;DHT22;17105;55.652;37.710;2022-11-11T01:23:00;11.70;95.70
30290;DHT22;17105;55.652;37.710;2022-11-11T01:23:53;11.60;95.80
30290;DHT22;17105;55.652;37.710;2022-11-11T01:24:44;11.60;95.70
30290;DHT22;17105;55.652;37.710;2022-11-11T01:25:38;11.60;95.80
30290;DHT22;17105;55.652;37.710;2022-11-11T01:26:31;11.60;95.80
30290;DHT22;17105;55.652;37.710;2022-11-11T01:27:25;11.60;95.80
30290;DHT22;17105;55.652;37.710;2022-11-11T01:28:17;11.60;95.80
30290;DHT22;17105;55.652;37.710;2022-11-11T01:29:12;11.60;95.90
30290;DHT22;17105;55.652;37.710;2022-11-11T01:30:06;11.60;95.90
30290;DHT22;17105;55.652;37.710;2022-11-11T01:31:05;11.60;96.00
30290;DHT22;17105;55.652;37.710;2022-11-11T01:31:57;11.60;96.00
30290;DHT22;17105;55.652;37.710;2022-11-11T01:32:51;11.50;96.00
30290;DHT22;17105;55.652;37.710;2022-11-11T01:33:43;11.50;96.10
30290;DHT22;17105;55.652;37.710;2022-11-11T01:34:35;11.50;96.10
30290;DHT22;17105;55.652;37.710;2022-11-11T01:35:27;11.50;96.10
30290;DHT22;17105;55.652;37.710;2022-11-11T01:36:20;11.50;96.10
30290;DHT22;17105;55.652;37.710;2022-11-11T01:37:12;11.50;96.10
30290;DHT22;17105;55.652;37.710;2022-11-11T01:38:04;11.50;96.20
30290;DHT22;17105;55.652;37.710;2022-11-11T01:38:59;11.50;96.30
30290;DHT22;17105;55.652;37.710;2022-11-11T01:39:53;11.50;96.30
30290;DHT22;17105;55.652;37.710;2022-11-11T01:40:46;11.50;96.20
30290;DHT22;17105;55.652;37.710;2022-11-11T01:41:40;11.50;96.20
30290;DHT22;17105;55.652;37.710;2022-11-11T01:42:44;11.50;96.20
30290;DHT22;17105;55.652;37.710;2022-11-11T01:43:38;11.50;96.20
30290;DHT22;17105;55.652;37.710;2022-11-11T01:44:41;11.50;96.20
30290;DHT22;17105;55.652;37.710;2022-11-11T01:45:46;11.50;96.30
30290;DHT22;17105;55.652;37.710;2022-11-11T01:46:40;11.50;96.30
30290;DHT22;17105;55.652;37.710;2022-11-11T01:47:34;11.50;96.30
30290;DHT22;17105;55.652;37.710;2022-11-11T01:49:14;11.50;96.30
30290;DHT22;17105;55.652;37.710;2022-11-11T01:50:11;11.50;96.40
30290;DHT22;17105;55.652;37.710;2022-11-11T01:51:05;11.50;96.40
30290;DHT22;17105;55.652;37.710;2022-11-11T01:52:01;11.50;96.40
30290;DHT22;17105;55.652;37.710;2022-11-11T01:52:59;11.50;96.40
30290;DHT22;17105;55.652;37.710;2022-11-11T01:53:53;11.50;96.40
30290;DHT22;17105;55.652;37.710;2022-11-11T01:54:48;11.50;96.40
30290;DHT22;17105;55.652;37.710;2022-11-11T01:55:41;11.50;96.50
30290;DHT22;17105;55.652;37.710;2022-11-11T01:56:34;11.50;96.50
30290;DHT22;17105;55.652;37.710;2022-11-11T01:57:31;11.50;96.50
30290;DHT22;17105;55.652;37.710;2022-11-11T01:58:24;11.50;96.50
30290;DHT22;17105;55.652;37.710;2022-11-11T01:59:16;11.50;96.50
30290;DHT22;17105;55.652;37.710;2022-11-11T02:00:11;11.50;96.50
30290;DHT22;17105;55.652;37.710;2022-11-11T02:01:03;11.50;96.50
30290;DHT22;17105;55.652;37.710;2022-11-11T02:01:57;11.50;96.50
30290;DHT22;17105;55.652;37.710;2022-11-11T02:02:50;11.50;96.50
30290;DHT22;17105;55.652;37.710;2022-11-11T02:03:44;11.50;96.50
30290;DHT22;17105;55.652;37.710;2022-11-11T02:04:57;11.50;96.60
30290;DHT22;17105;55.652;37.710;2022-11-11T02:06:07;11.50;96.60
30290;DHT22;17105;55.652;37.710;2022-11-11T02:07:00;11.50;96.60
30290;DHT22;17105;55.652;37.710;2022-11-11T02:07:53;11.50;96.60
30290;DHT22;17105;55.652;37.710;2022-11-11T02:08:46;11.50;96.60
30290;DHT22;17105;55.652;37.710;2022-11-11T02:09:40;11.50;96.60
30290;DHT22;17105;55.652;37.710;2022-11-11T02:10:34;11.50;96.60
30290;DHT22;17105;55.652;37.710;2022-11-11T02:11:27;11.50;96.60
30290;DHT22;17105;55.652;37.710;2022-11-11T02:12:37;11.50;96.60
30290;DHT22;17105;55.652;37.710;2022-11-11T02:13:48;11.50;96.60
30290;DHT22;17105;55.652;37.710;2022-11-11T02:15:08;11.50;96.60
30290;DHT22;17105;55.652;37.710;2022-11-11T02:16:04;11.50;96.60
30290;DHT22;17105;55.652;37.710;2022-11-11T02:16:57;11.50;96.60
30290;DHT22;17105;55.652;37.710;2022-11-11T02:17:49;11.50;96.70
30290;DHT22;17105;55.652;37.710;2022-11-11T02:18:43;11.50;96.60
30290;DHT22;17105;55.652;37.710;2022-11-11T02:19:38;11.50;96.60
30290;DHT22;17105;55.652;37.710;2022-11-11T02:20:34;11.50;96.60
30290;DHT22;17105;55.652;37.710;2022-11-11T02:21:32;11.50;96.70
30290;DHT22;17105;55.652;37.710;2022-11-11T02:22:28;11.50;96.70
30290;DHT22;17105;55.652;37.710;2022-11-11T02:23:24;11.50;96.70
30290;DHT22;17105;55.652;37.710;2022-11-11T02:24:20;11.50;96.90
30290;DHT22;17105;55.652;37.710;2022-11-11T02:25:15;11.50;96.70
30290;DHT22;17105;55.652;37.710;2022-11-11T02:26:08;11.50;96.70
30290;DHT22;17105;55.652;37.710;2022-11-11T02:27:03;11.50;96.70
30290;DHT22;17105;55.652;37.710;2022-11-11T02:27:56;11.50;96.70
30290;DHT22;17105;55.652;37.710;2022-11-11T02:28:49;11.50;96.70
30290;DHT22;17105;55.652;37.710;2022-11-11T02:29:41;11.50;96.70
30290;DHT22;17105;55.652;37.710;2022-11-11T02:30:35;11.50;96.70
30290;DHT22;17105;55.652;37.710;2022-11-11T02:31:28;11.50;96.70
30290;DHT22;17105;55.652;37.710;2022-11-11T02:32:20;11.50;96.70
30290;DHT22;17105;55.652;37.710;2022-11-11T02:33:13;11.50;96.70
30290;DHT22;17105;55.652;37.710;2022-11-11T02:34:05;11.50;96.70
30290;DHT22;17105;55.652;37.710;2022-11-11T02:34:59;11.50;96.70
30290;DHT22;17105;55.652;37.710;2022-11-11T02:35:52;11.50;96.90
30290;DHT22;17105;55.652;37.710;2022-11-11T02:36:48;11.60;96.70
30290;DHT22;17105;55.652;37.710;2022-11-11T02:37:40;11.60;96.70
30290;DHT22;17105;55.652;37.710;2022-11-11T02:38:33;11.60;96.70
30290;DHT22;17105;55.652;37.710;2022-11-11T02:39:27;11.60;96.70
30290;DHT22;17105;55.652;37.710;2022-11-11T02:40:40;11.60;96.70
30290;DHT22;17105;55.652;37.710;2022-11-11T02:41:54;11.60;96.80
30290;DHT22;17105;55.652;37.710;2022-11-11T02:42:49;11.60;96.80
30290;DHT22;17105;55.652;37.710;2022-11-11T02:43:42;11.60;96.80
30290;DHT22;17105;55.652;37.710;2022-11-11T02:44:35;11.60;96.80
30290;DHT22;17105;55.652;37.710;2022-11-11T02:45:28;11.60;96.70
30290;DHT22;17105;55.652;37.710;2022-11-11T02:46:21;11.60;96.70
30290;DHT22;17105;55.652;37.710;2022-11-11T02:47:14;11.60;96.70
30290;DHT22;17105;55.652;37.710;2022-11-11T02:48:06;11.60;96.70
30290;DHT22;17105;55.652;37.710;2022-11-11T02:48:59;11.60;96.70
30290;DHT22;17105;55.652;37.710;2022-11-11T02:49:51;11.60;96.70
30290;DHT22;17105;55.652;37.710;2022-11-11T02:50:43;11.60;96.70
30290;DHT22;17105;55.652;37.710;2022-11-11T02:51:38;11.60;96.70
30290;DHT22;17105;55.652;37.710;2022-11-11T02:52:30;11.60;96.70
30290;DHT22;17105;55.652;37.710;2022-11-11T02:53:24;11.60;96.80
30290;DHT22;17105;55.652;37.710;2022-11-11T02:54:17;11.60;96.70
30290;DHT22;17105;55.652;37.710;2022-11-11T02:55:11;11.60;96.80
30290;DHT22;17105;55.652;37.710;2022-11-11T02:56:02;11.60;96.80
30290;DHT22;17105;55.652;37.710;2022-11-11T02:56:56;11.60;96.80
30290;DHT22;17105;55.652;37.710;2022-11-11T02:57:58;11.60;96.80
30290;DHT22;17105;55.652;37.710;2022-11-11T02:58:50;11.60;96.80
30290;DHT22;17105;55.652;37.710;2022-11-11T02:59:43;11.60;96.80
30290;DHT22;17105;55.652;37.710;2022-11-11T03:00:36;11.60;96.80
30290;DHT22;17105;55.652;37.710;2022-11-11T03:01:30;11.60;96.80
30290;DHT22;17105;55.652;37.710;2022-11-11T03:02:22;11.60;96.80
30290;DHT22;17105;55.652;37.710;2022-11-11T03:03:18;11.60;96.80
30290;DHT22;17105;55.652;37.710;2022-11-11T03:04:10;11.60;96.80
30290;DHT22;17105;55.652;37.710;2022-11-11T03:05:02;11.60;96.80
30290;DHT22;17105;55.652;37.710;2022-11-11T03:05:56;11.60;96.90
30290;DHT22;17105;55.652;37.710;2022-11-11T03:06:47;11.60;96.90
30290;DHT22;17105;55.652;37.710;2022-11-11T03:07:40;11.50;96.90
30290;DHT22;17105;55.652;37.710;2022-11-11T03:08:31;11.50;96.90
30290;DHT22;17105;55.652;37.710;2022-11-11T03:09:25;11.50;96.90
30290;DHT22;17105;55.652;37.710;2022-11-11T03:10:18;11.50;96.90
30290;DHT22;17105;55.652;37.710;2022-11-11T03:11:12;11.50;96.90
30290;DHT22;17105;55.652;37.710;2022-11-11T03:12:04;11.50;96.90
30290;DHT22;17105;55.652;37.710;2022-11-11T03:12:57;11.60;97.00
30290;DHT22;17105;55.652;37.710;2022-11-11T03:13:49;11.50;97.00
30290;DHT22;17105;55.652;37.710;2022-11-11T03:14:40;11.60;97.00
30290;DHT22;17105;55.652;37.710;2022-11-11T03:15:33;11.60;97.00
30290;DHT22;17105;55.652;37.710;2022-11-11T03:16:25;11.60;97.00
30290;DHT22;17105;55.652;37.710;2022-11-11T03:17:32;11.50;97.00
30290;DHT22;17105;55.652;37.710;2022-11-11T03:18:31;11.50;97.00
30290;DHT22;17105;55.652;37.710;2022-11-11T03:19:24;11.60;97.00
30290;DHT22;17105;55.652;37.710;2022-11-11T03:20:17;11.50;96.90
30290;DHT22;17105;55.652;37.710;2022-11-11T03:21:27;11.50;97.00
30290;DHT22;17105;55.652;37.710;2022-11-11T03:22:40;11.50;97.00
30290;DHT22;17105;55.652;37.710;2022-11-11T03:23:47;11.50;97.00
30290;DHT22;17105;55.652;37.710;2022-11-11T03:24:41;11.50;97.00
30290;DHT22;17105;55.652;37.710;2022-11-11T03:25:53;11.50;97.00
30290;DHT22;17105;55.652;37.710;2022-11-11T03:26:48;11.50;97.00
30290;DHT22;17105;55.652;37.710;2022-11-11T03:27:41;11.50;97.00
30290;DHT22;17105;55.652;37.710;2022-11-11T03:28:34;11.50;97.00
30290;DHT22;17105;55.652;37.710;2022-11-11T03:29:27;11.50;97.00
30290;DHT22;17105;55.652;37.710;2022-11-11T03:30:19;11.50;97.00
30290;DHT22;17105;55.652;37.710;2022-11-11T03:31:11;11.50;97.00
30290;DHT22;17105;55.652;37.710;2022-11-11T03:32:04;11.50;97.00
30290;DHT22;17105;55.652;37.710;2022-11-11T03:32:57;11.50;97.30
30290;DHT22;17105;55.652;37.710;2022-11-11T03:33:49;11.50;97.10
30290;DHT22;17105;55.652;37.710;2022-11-11T03:34:42;11.50;97.00
30290;DHT22;17105;55.652;37.710;2022-11-11T03:35:33;11.50;97.00
30290;DHT22;17105;55.652;37.710;2022-11-11T03:36:27;11.50;97.00
30290;DHT22;17105;55.652;37.710;2022-11-11T03:37:39;11.50;97.00
30290;DHT22;17105;55.652;37.710;2022-11-11T03:38:48;11.60;97.00
30290;DHT22;17105;55.652;37.710;2022-11-11T03:39:40;11.50;97.00
30290;DHT22;17105;55.652;37.710;2022-11-11T03:40:32;11.60;97.00
30290;DHT22;17105;55.652;37.710;2022-11-11T03:41:26;11.50;97.00
30290;DHT22;17105;55.652;37.710;2022-11-11T03:42:19;11.50;97.00
30290;DHT22;17105;55.652;37.710;2022-11-11T03:43:12;11.60;97.00
30290;DHT22;17105;55.652;37.710;2022-11-11T03:44:03;11.60;97.00
30290;DHT22;17105;55.652;37.710;2022-11-11T03:44:57;11.60;97.00
30290;DHT22;17105;55.652;37.710;2022-11-11T03:45:49;11.60;97.00
30290;DHT22;17105;55.652;37.710;2022-11-11T03:46:42;11.60;97.00
30290;DHT22;17105;55.652;37.710;2022-11-11T03:47:34;11.60;97.00
30290;DHT22;17105;55.652;37.710;2022-11-11T03:48:27;11.60;97.00
30290;DHT22;17105;55.652;37.710;2022-11-11T03:49:20;11.60;97.00
30290;DHT22;17105;55.652;37.710;2022-11-11T03:50:13;11.60;97.00
30290;DHT22;17105;55.652;37.710;2022-11-11T03:51:06;11.60;97.00
30290;DHT22;17105;55.652;37.710;2022-11-11T03:52:05;11.60;97.00
30290;DHT22;17105;55.652;37.710;2022-11-11T03:52:57;11.60;97.00
30290;DHT22;17105;55.652;37.710;2022-11-11T03:53:51;11.60;97.00
30290;DHT22;17105;55.652;37.710;2022-11-11T03:54:43;11.60;97.00
30290;DHT22;17105;55.652;37.710;2022-11-11T03:55:36;11.60;97.00
30290;DHT22;17105;55.652;37.710;2022-11-11T03:56:30;11.60;97.00
30290;DHT22;17105;55.652;37.710;2022-11-11T03:57:24;11.60;97.00
30290;DHT22;17105;55.652;37.710;2022-11-11T03:58:22;11.60;97.00
30290;DHT22;17105;55.652;37.710;2022-11-11T03:59:16;11.60;97.00
30290;DHT22;17105;55.652;37.710;2022-11-11T04:00:08;11.60;97.00
30290;DHT22;17105;55.652;37.710;2022-11-11T04:01:04;11.60;97.00
30290;DHT22;17105;55.652;37.710;2022-11-11T04:02:15;11.60;97.00
30290;DHT22;17105;55.652;37.710;2022-11-11T04:03:25;11.60;97.00
30290;DHT22;17105;55.652;37.710;2022-11-11T04:04:36;11.60;97.00
30290;DHT22;17105;55.652;37.710;2022-11-11T04:05:49;11.60;97.00
30290;DHT22;17105;55.652;37.710;2022-11-11T04:07:00;11.60;97.00
30290;DHT22;17105;55.652;37.710;2022-11-11T04:08:15;11.70;97.00
30290;DHT22;17105;55.652;37.710;2022-11-11T04:09:24;11.60;97.00
30290;DHT22;17105;55.652;37.710;2022-11-11T04:10:35;11.60;97.00
30290;DHT22;17105;55.652;37.710;2022-11-11T04:11:30;11.70;97.10
30290;DHT22;17105;55.652;37.710;2022-11-11T04:12:23;11.60;97.00
30290;DHT22;17105;55.652;37.710;2022-11-11T04:13:16;11.60;97.10
30290;DHT22;17105;55.652;37.710;2022-11-11T04:14:26;11.70;97.10
30290;DHT22;17105;55.652;37.710;2022-11-11T04:15:36;11.70;97.10
30290;DHT22;17105;55.652;37.710;2022-11-11T04:16:46;11.70;97.30
30290;DHT22;17105;55.652;37.710;2022-11-11T04:17:38;11.60;97.10
30290;DHT22;17105;55.652;37.710;2022-11-11T04:18:30;11.70;97.10
30290;DHT22;17105;55.652;37.710;2022-11-11T04:19:40;11.70;97.10
30290;DHT22;17105;55.652;37.710;2022-11-11T04:20:51;11.70;97.10
30290;DHT22;17105;55.652;37.710;2022-11-11T04:22:01;11.60;97.10
30290;DHT22;17105;55.652;37.710;2022-11-11T04:22:55;11.60;97.10
30290;DHT22;17105;55.652;37.710;2022-11-11T04:23:47;11.60;97.10
30290;DHT22;17105;55.652;37.710;2022-11-11T04:24:39;11.60;97.20
30290;DHT22;17105;55.652;37.710;2022-11-11T04:25:49;11.70;97.20
30290;DHT22;17105;55.652;37.710;2022-11-11T04:26:45;11.70;97.20
30290;DHT22;17105;55.652;37.710;2022-11-11T04:27:36;11.70;97.10
30290;DHT22;17105;55.652;37.710;2022-11-11T04:28:29;11.60;97.10
30290;DHT22;17105;55.652;37.710;2022-11-11T04:29:40;11.60;97.20
30290;DHT22;17105;55.652;37.710;2022-11-11T04:30:33;11.60;97.20
30290;DHT22;17105;55.652;37.710;2022-11-11T04:31:25;11.60;97.20
30290;DHT22;17105;55.652;37.710;2022-11-11T04:32:17;11.60;97.20
30290;DHT22;17105;55.652;37.710;2022-11-11T04:33:27;11.60;97.20
30290;DHT22;17105;55.652;37.710;2022-11-11T04:34:20;11.60;97.20
30290;DHT22;17105;55.652;37.710;2022-11-11T04:35:13;11.60;97.20
30290;DHT22;17105;55.652;37.710;2022-11-11T04:36:05;11.60;97.10
30290;DHT22;17105;55.652;37.710;2022-11-11T04:36:59;11.60;97.10
30290;DHT22;17105;55.652;37.710;2022-11-11T04:37:51;11.60;97.20
30290;DHT22;17105;55.652;37.710;2022-11-11T04:39:05;11.60;97.20
30290;DHT22;17105;55.652;37.710;2022-11-11T04:40:17;11.60;97.20
30290;DHT22;17105;55.652;37.710;2022-11-11T04:41:27;11.60;97.20
30290;DHT22;17105;55.652;37.710;2022-11-11T04:42:40;11.60;97.30
30290;DHT22;17105;55.652;37.710;2022-11-11T04:43:34;11.70;97.30
30290;DHT22;17105;55.652;37.710;2022-11-11T04:44:46;11.60;97.30
30290;DHT22;17105;55.652;37.710;2022-11-11T04:45:57;11.70;97.30
30290;DHT22;17105;55.652;37.710;2022-11-11T04:46:49;11.70;97.30
30290;DHT22;17105;55.652;37.710;2022-11-11T04:47:52;11.70;97.30
30290;DHT22;17105;55.652;37.710;2022-11-11T04:48:44;11.70;97.30
30290;DHT22;17105;55.652;37.710;2022-11-11T04:49:37;11.70;97.30
30290;DHT22;17105;55.652;37.710;2022-11-11T04:50:30;11.60;97.30
30290;DHT22;17105;55.652;37.710;2022-11-11T04:51:23;11.60;97.30
30290;DHT22;17105;55.652;37.710;2022-11-11T04:52:35;11.60;97.30
30290;DHT22;17105;55.652;37.710;2022-11-11T04:53:29;11.60;97.60
30290;DHT22;17105;55.652;37.710;2022-11-11T04:54:21;11.60;97.40
30290;DHT22;17105;55.652;37.710;2022-11-11T04:55:14;11.60;97.40
30290;DHT22;17105;55.652;37.710;2022-11-11T04:56:25;11.60;97.40
30290;DHT22;17105;55.652;37.710;2022-11-11T04:57:37;11.60;97.50
30290;DHT22;17105;55.652;37.710;2022-11-11T04:58:32;11.60;97.50
30290;DHT22;17105;55.652;37.710;2022-11-11T04:59:25;11.60;97.50
30290;DHT22;17105;55.652;37.710;2022-11-11T05:00:18;11.60;97.50
30290;DHT22;17105;55.652;37.710;2022-11-11T05:01:10;11.60;97.50
30290;DHT22;17105;55.652;37.710;2022-11-11T05:02:23;11.60;97.50
30290;DHT22;17105;55.652;37.710;2022-11-11T05:03:34;11.60;97.60
30290;DHT22;17105;55.652;37.710;2022-11-11T05:04:27;11.60;97.70
30290;DHT22;17105;55.652;37.710;2022-11-11T05:05:19;11.60;97.60
30290;DHT22;17105;55.652;37.710;2022-11-11T05:06:11;11.60;97.70
30290;DHT22;17105;55.652;37.710;2022-11-11T05:07:22;11.60;97.60
30290;DHT22;17105;55.652;37.710;2022-11-11T05:08:33;11.60;97.70
30290;DHT22;17105;55.652;37.710;2022-11-11T05:09:40;11.60;97.70
30290;DHT22;17105;55.652;37.710;2022-11-11T05:10:34;11.60;97.70
30290;DHT22;17105;55.652;37.710;2022-11-11T05:11:27;11.60;97.70
30290;DHT22;17105;55.652;37.710;2022-11-11T05:12:19;11.60;97.70
30290;DHT22;17105;55.652;37.710;2022-11-11T05:13:11;11.60;97.70
30290;DHT22;17105;55.652;37.710;2022-11-11T05:14:23;11.60;97.70
30290;DHT22;17105;55.652;37.710;2022-11-11T05:15:34;11.60;97.70
30290;DHT22;17105;55.652;37.710;2022-11-11T05:16:45;11.60;97.80
30290;DHT22;17105;55.652;37.710;2022-11-11T05:17:56;11.60;97.70
30290;DHT22;17105;55.652;37.710;2022-11-11T05:19:07;11.60;97.80
30290;DHT22;17105;55.652;37.710;2022-11-11T05:20:18;11.60;97.70
30290;DHT22;17105;55.652;37.710;2022-11-11T05:21:29;11.60;97.70
30290;DHT22;17105;55.652;37.710;2022-11-11T05:22:23;11.60;97.80
30290;DHT22;17105;55.652;37.710;2022-11-11T05:23:16;11.50;97.70
30290;DHT22;17105;55.652;37.710;2022-11-11T05:24:10;11.60;97.80
30290;DHT22;17105;55.652;37.710;2022-11-11T05:25:21;11.60;97.80
30290;DHT22;17105;55.652;37.710;2022-11-11T05:26:16;11.60;97.80
30290;DHT22;17105;55.652;37.710;2022-11-11T05:27:08;11.60;97.80
30290;DHT22;17105;55.652;37.710;2022-11-11T05:28:00;11.60;97.80
30290;DHT22;17105;55.652;37.710;2022-11-11T05:28:52;11.60;97.70
30290;DHT22;17105;55.652;37.710;2022-11-11T05:29:47;11.60;98.00
30290;DHT22;17105;55.652;37.710;2022-11-11T05:30:38;11.60;97.80
30290;DHT22;17105;55.652;37.710;2022-11-11T05:31:31;11.60;97.70
30290;DHT22;17105;55.652;37.710;2022-11-11T05:32:25;11.60;97.70
30290;DHT22;17105;55.652;37.710;2022-11-11T05:33:18;11.60;97.80
30290;DHT22;17105;55.652;37.710;2022-11-11T05:34:09;11.60;97.70
30290;DHT22;17105;55.652;37.710;2022-11-11T05:35:02;11.60;97.70
30290;DHT22;17105;55.652;37.710;2022-11-11T05:35:54;11.60;97.60
30290;DHT22;17105;55.652;37.710;2022-11-11T05:36:48;11.60;97.70
30290;DHT22;17105;55.652;37.710;2022-11-11T05:37:39;11.60;97.70
30290;DHT22;17105;55.652;37.710;2022-11-11T05:38:32;11.60;97.70
30290;DHT22;17105;55.652;37.710;2022-11-11T05:39:25;11.60;97.70
30290;DHT22;17105;55.652;37.710;2022-11-11T05:40:18;11.50;97.70
30290;DHT22;17105;55.652;37.710;2022-11-11T05:41:10;11.60;97.70
30290;DHT22;17105;55.652;37.710;2022-11-11T05:42:03;11.60;97.70
30290;DHT22;17105;55.652;37.710;2022-11-11T05:42:55;11.60;97.70
30290;DHT22;17105;55.652;37.710;2022-11-11T05:43:48;11.60;97.80
30290;DHT22;17105;55.652;37.710;2022-11-11T05:44:40;11.50;97.80
30290;DHT22;17105;55.652;37.710;2022-11-11T05:45:36;11.50;97.70
30290;DHT22;17105;55.652;37.710;2022-11-11T05:46:28;11.50;97.80
30290;DHT22;17105;55.652;37.710;2022-11-11T05:47:21;11.50;97.80
30290;DHT22;17105;55.652;37.710;2022-11-11T05:48:13;11.60;97.80
30290;DHT22;17105;55.652;37.710;2022-11-11T05:49:07;11.60;97.80
30290;DHT22;17105;55.652;37.710;2022-11-11T05:50:06;11.50;97.70
30290;DHT22;17105;55.652;37.710;2022-11-11T05:50:58;11.50;97.70
30290;DHT22;17105;55.652;37.710;2022-11-11T05:51:51;11.50;97.70
30290;DHT22;17105;55.652;37.710;2022-11-11T05:52:46;11.60;97.70